sensor_id;sensor_type;location;lat;lon;timestamp;P1;durP1;ratioP1;P2;durP2;ratioP2
66487;SDS011;53304;54.550;18.526;2024-03-22T00:01:56;9.00;;;5.20;;
66487;SDS011;53304;54.550;18.526;2024-03-22T00:04:21;10.25;;;5.47;;
66487;SDS011;53304;54.550;18.526;2024-03-22T00:06:48;9.35;;;5.30;;
66487;SDS011;53304;54.550;18.526;2024-03-22T00:09:18;9.35;;;5.53;;
66487;SDS011;53304;54.550;18.526;2024-03-22T00:11:47;8.50;;;5.15;;
66487;SDS011;53304;54.550;18.526;2024-03-22T00:14:15;10.20;;;6.07;;
66487;SDS011;53304;54.550;18.526;2024-03-22T00:16:40;10.23;;;5.15;;
66487;SDS011;53304;54.550;18.526;2024-03-22T00:19:05;9.55;;;5.72;;
66487;SDS011;53304;54.550;18.526;2024-03-22T00:21:31;9.25;;;5.55;;
66487;SDS011;53304;54.550;18.526;2024-03-22T00:24:01;8.25;;;4.80;;
66487;SDS011;53304;54.550;18.526;2024-03-22T00:26:26;9.43;;;5.43;;
66487;SDS011;53304;54.550;18.526;2024-03-22T00:28:52;8.05;;;5.00;;
66487;SDS011;53304;54.550;18.526;2024-03-22T00:31:20;9.60;;;5.28;;
66487;SDS011;53304;54.550;18.526;2024-03-22T00:33:45;9.57;;;5.28;;
66487;SDS011;53304;54.550;18.526;2024-03-22T00:36:16;8.52;;;4.85;;
66487;SDS011;53304;54.550;18.526;2024-03-22T00:38:43;8.80;;;5.13;;
66487;SDS011;53304;54.550;18.526;2024-03-22T00:41:11;7.60;;;4.70;;
66487;SDS011;53304;54.550;18.526;2024-03-22T00:43:41;9.40;;;4.95;;
66487;SDS011;53304;54.550;18.526;2024-03-22T00:46:06;8.15;;;5.10;;
66487;SDS011;53304;54.550;18.526;2024-03-22T00:48:34;7.90;;;4.88;;
66487;SDS011;53304;54.550;18.526;2024-03-22T00:51:02;8.18;;;5.10;;
66487;SDS011;53304;54.550;18.526;2024-03-22T00:53:30;7.60;;;4.90;;
66487;SDS011;53304;54.550;18.526;2024-03-22T00:55:56;9.25;;;5.03;;
66487;SDS011;53304;54.550;18.526;2024-03-22T00:58:24;8.88;;;4.65;;
66487;SDS011;53304;54.550;18.526;2024-03-22T01:00:51;7.93;;;4.97;;
66487;SDS011;53304;54.550;18.526;2024-03-22T01:03:19;8.70;;;5.15;;
66487;SDS011;53304;54.550;18.526;2024-03-22T01:05:44;7.00;;;4.65;;
66487;SDS011;53304;54.550;18.526;2024-03-22T01:08:10;8.23;;;5.03;;
66487;SDS011;53304;54.550;18.526;2024-03-22T01:10:36;8.18;;;4.88;;
66487;SDS011;53304;54.550;18.526;2024-03-22T01:13:03;7.85;;;4.70;;
66487;SDS011;53304;54.550;18.526;2024-03-22T01:15:31;8.73;;;5.00;;
66487;SDS011;53304;54.550;18.526;2024-03-22T01:17:57;7.68;;;4.78;;
66487;SDS011;53304;54.550;18.526;2024-03-22T01:20:24;7.80;;;4.28;;
66487;SDS011;53304;54.550;18.526;2024-03-22T01:22:50;8.73;;;5.03;;
66487;SDS011;53304;54.550;18.526;2024-03-22T01:25:15;8.52;;;4.70;;
66487;SDS011;53304;54.550;18.526;2024-03-22T01:27:41;7.65;;;4.32;;
66487;SDS011;53304;54.550;18.526;2024-03-22T01:30:08;9.57;;;4.80;;
66487;SDS011;53304;54.550;18.526;2024-03-22T01:32:35;8.27;;;4.22;;
66487;SDS011;53304;54.550;18.526;2024-03-22T01:35:00;9.02;;;5.07;;
66487;SDS011;53304;54.550;18.526;2024-03-22T01:37:32;8.38;;;4.97;;
66487;SDS011;53304;54.550;18.526;2024-03-22T01:40:00;7.47;;;4.43;;
66487;SDS011;53304;54.550;18.526;2024-03-22T01:42:25;8.93;;;4.90;;
66487;SDS011;53304;54.550;18.526;2024-03-22T01:44:51;8.02;;;4.68;;
66487;SDS011;53304;54.550;18.526;2024-03-22T01:47:19;7.20;;;4.28;;
66487;SDS011;53304;54.550;18.526;2024-03-22T01:49:49;8.40;;;4.93;;
66487;SDS011;53304;54.550;18.526;2024-03-22T01:52:16;7.32;;;4.53;;
66487;SDS011;53304;54.550;18.526;2024-03-22T01:54:41;8.10;;;4.68;;
66487;SDS011;53304;54.550;18.526;2024-03-22T01:57:10;7.68;;;4.55;;
66487;SDS011;53304;54.550;18.526;2024-03-22T01:59:40;7.45;;;4.20;;
66487;SDS011;53304;54.550;18.526;2024-03-22T02:02:08;7.30;;;4.15;;
66487;SDS011;53304;54.550;18.526;2024-03-22T02:04:36;6.97;;;4.20;;
66487;SDS011;53304;54.550;18.526;2024-03-22T02:07:04;7.05;;;4.40;;
66487;SDS011;53304;54.550;18.526;2024-03-22T02:09:29;8.32;;;4.60;;
66487;SDS011;53304;54.550;18.526;2024-03-22T02:11:55;7.32;;;4.35;;
66487;SDS011;53304;54.550;18.526;2024-03-22T02:14:20;6.22;;;3.78;;
66487;SDS011;53304;54.550;18.526;2024-03-22T02:16:48;7.68;;;4.28;;
66487;SDS011;53304;54.550;18.526;2024-03-22T02:19:13;7.72;;;4.07;;
66487;SDS011;53304;54.550;18.526;2024-03-22T02:21:38;7.35;;;4.07;;
66487;SDS011;53304;54.550;18.526;2024-03-22T02:24:06;7.55;;;4.45;;
66487;SDS011;53304;54.550;18.526;2024-03-22T02:26:37;7.13;;;4.13;;
66487;SDS011;53304;54.550;18.526;2024-03-22T02:29:04;6.40;;;4.10;;
66487;SDS011;53304;54.550;18.526;2024-03-22T02:31:33;7.38;;;4.30;;
66487;SDS011;53304;54.550;18.526;2024-03-22T02:34:01;7.03;;;3.85;;
66487;SDS011;53304;54.550;18.526;2024-03-22T02:36:28;6.85;;;3.88;;
66487;SDS011;53304;54.550;18.526;2024-03-22T02:38:54;8.10;;;4.50;;
66487;SDS011;53304;54.550;18.526;2024-03-22T02:41:21;6.32;;;3.88;;
66487;SDS011;53304;54.550;18.526;2024-03-22T02:43:49;6.28;;;3.92;;
66487;SDS011;53304;54.550;18.526;2024-03-22T02:46:14;6.72;;;4.13;;
66487;SDS011;53304;54.550;18.526;2024-03-22T02:48:42;5.97;;;3.92;;
66487;SDS011;53304;54.550;18.526;2024-03-22T02:51:08;7.20;;;4.30;;
66487;SDS011;53304;54.550;18.526;2024-03-22T02:53:33;6.80;;;4.20;;
66487;SDS011;53304;54.550;18.526;2024-03-22T02:56:03;6.68;;;4.03;;
66487;SDS011;53304;54.550;18.526;2024-03-22T02:58:30;6.00;;;3.78;;
66487;SDS011;53304;54.550;18.526;2024-03-22T03:00:58;8.18;;;4.20;;
66487;SDS011;53304;54.550;18.526;2024-03-22T03:03:23;6.85;;;4.28;;
66487;SDS011;53304;54.550;18.526;2024-03-22T03:05:51;7.45;;;4.20;;
66487;SDS011;53304;54.550;18.526;2024-03-22T03:08:17;6.70;;;4.05;;
66487;SDS011;53304;54.550;18.526;2024-03-22T03:10:45;7.30;;;4.03;;
66487;SDS011;53304;54.550;18.526;2024-03-22T03:13:15;6.75;;;3.97;;
66487;SDS011;53304;54.550;18.526;2024-03-22T03:15:40;6.55;;;4.20;;
66487;SDS011;53304;54.550;18.526;2024-03-22T03:18:08;6.78;;;3.85;;
66487;SDS011;53304;54.550;18.526;2024-03-22T03:20:33;6.82;;;4.20;;
66487;SDS011;53304;54.550;18.526;2024-03-22T03:23:01;7.35;;;4.10;;
66487;SDS011;53304;54.550;18.526;2024-03-22T03:25:27;7.13;;;3.88;;
66487;SDS011;53304;54.550;18.526;2024-03-22T03:27:54;6.60;;;3.70;;
66487;SDS011;53304;54.550;18.526;2024-03-22T03:30:20;7.28;;;3.95;;
66487;SDS011;53304;54.550;18.526;2024-03-22T03:32:45;6.75;;;3.83;;
66487;SDS011;53304;54.550;18.526;2024-03-22T03:35:13;8.02;;;3.92;;
66487;SDS011;53304;54.550;18.526;2024-03-22T03:37:38;8.05;;;4.38;;
66487;SDS011;53304;54.550;18.526;2024-03-22T03:40:06;6.68;;;3.78;;
66487;SDS011;53304;54.550;18.526;2024-03-22T03:42:34;7.03;;;4.00;;
66487;SDS011;53304;54.550;18.526;2024-03-22T03:45:00;8.80;;;4.13;;
66487;SDS011;53304;54.550;18.526;2024-03-22T03:47:25;6.55;;;3.83;;
66487;SDS011;53304;54.550;18.526;2024-03-22T03:49:53;7.75;;;4.10;;
66487;SDS011;53304;54.550;18.526;2024-03-22T03:52:18;6.75;;;4.10;;
66487;SDS011;53304;54.550;18.526;2024-03-22T03:54:46;7.78;;;4.43;;
66487;SDS011;53304;54.550;18.526;2024-03-22T03:57:14;6.68;;;3.80;;
66487;SDS011;53304;54.550;18.526;2024-03-22T03:59:42;7.22;;;3.95;;
66487;SDS011;53304;54.550;18.526;2024-03-22T04:02:09;7.95;;;4.45;;
66487;SDS011;53304;54.550;18.526;2024-03-22T04:04:37;6.25;;;3.78;;
66487;SDS011;53304;54.550;18.526;2024-03-22T04:07:04;6.80;;;4.20;;
66487;SDS011;53304;54.550;18.526;2024-03-22T04:09:30;6.50;;;3.80;;
66487;SDS011;53304;54.550;18.526;2024-03-22T04:11:57;6.38;;;3.95;;
66487;SDS011;53304;54.550;18.526;2024-03-22T04:14:25;8.15;;;4.00;;
66487;SDS011;53304;54.550;18.526;2024-03-22T04:16:51;6.55;;;4.10;;
66487;SDS011;53304;54.550;18.526;2024-03-22T04:19:20;5.97;;;3.90;;
66487;SDS011;53304;54.550;18.526;2024-03-22T04:21:49;6.20;;;3.72;;
66487;SDS011;53304;54.550;18.526;2024-03-22T04:24:15;7.38;;;4.40;;
66487;SDS011;53304;54.550;18.526;2024-03-22T04:26:40;6.55;;;3.50;;
66487;SDS011;53304;54.550;18.526;2024-03-22T04:29:06;6.57;;;3.67;;
66487;SDS011;53304;54.550;18.526;2024-03-22T04:31:31;8.80;;;4.30;;
66487;SDS011;53304;54.550;18.526;2024-03-22T04:33:59;6.70;;;4.20;;
66487;SDS011;53304;54.550;18.526;2024-03-22T04:36:24;6.13;;;4.03;;
66487;SDS011;53304;54.550;18.526;2024-03-22T04:38:49;7.10;;;4.05;;
66487;SDS011;53304;54.550;18.526;2024-03-22T04:41:17;6.88;;;3.90;;
66487;SDS011;53304;54.550;18.526;2024-03-22T04:43:45;6.78;;;4.10;;
66487;SDS011;53304;54.550;18.526;2024-03-22T04:46:13;6.60;;;3.67;;
66487;SDS011;53304;54.550;18.526;2024-03-22T04:48:41;7.20;;;4.00;;
66487;SDS011;53304;54.550;18.526;2024-03-22T04:51:08;7.13;;;3.92;;
66487;SDS011;53304;54.550;18.526;2024-03-22T04:53:34;6.90;;;3.75;;
66487;SDS011;53304;54.550;18.526;2024-03-22T04:55:59;6.90;;;4.10;;
66487;SDS011;53304;54.550;18.526;2024-03-22T04:58:27;8.50;;;4.07;;
66487;SDS011;53304;54.550;18.526;2024-03-22T05:00:56;6.47;;;4.05;;
66487;SDS011;53304;54.550;18.526;2024-03-22T05:03:22;6.88;;;4.13;;
66487;SDS011;53304;54.550;18.526;2024-03-22T05:05:47;8.15;;;4.05;;
66487;SDS011;53304;54.550;18.526;2024-03-22T05:08:15;6.68;;;4.00;;
66487;SDS011;53304;54.550;18.526;2024-03-22T05:10:43;7.18;;;3.95;;
66487;SDS011;53304;54.550;18.526;2024-03-22T05:13:08;6.80;;;3.92;;
66487;SDS011;53304;54.550;18.526;2024-03-22T05:15:34;6.68;;;3.85;;
66487;SDS011;53304;54.550;18.526;2024-03-22T05:17:59;8.40;;;4.50;;
66487;SDS011;53304;54.550;18.526;2024-03-22T05:20:27;7.07;;;4.13;;
66487;SDS011;53304;54.550;18.526;2024-03-22T05:22:52;7.50;;;4.22;;
66487;SDS011;53304;54.550;18.526;2024-03-22T05:25:18;6.30;;;3.70;;
66487;SDS011;53304;54.550;18.526;2024-03-22T05:27:46;7.55;;;4.25;;
66487;SDS011;53304;54.550;18.526;2024-03-22T05:30:13;7.40;;;3.88;;
66487;SDS011;53304;54.550;18.526;2024-03-22T05:32:39;7.32;;;4.45;;
66487;SDS011;53304;54.550;18.526;2024-03-22T05:35:05;6.43;;;3.97;;
66487;SDS011;53304;54.550;18.526;2024-03-22T05:37:31;6.55;;;3.92;;
66487;SDS011;53304;54.550;18.526;2024-03-22T05:40:02;7.05;;;4.13;;
66487;SDS011;53304;54.550;18.526;2024-03-22T05:42:31;6.90;;;4.00;;
66487;SDS011;53304;54.550;18.526;2024-03-22T05:44:56;7.63;;;3.90;;
66487;SDS011;53304;54.550;18.526;2024-03-22T05:47:22;6.20;;;3.67;;
66487;SDS011;53304;54.550;18.526;2024-03-22T05:49:50;7.28;;;4.28;;
66487;SDS011;53304;54.550;18.526;2024-03-22T05:52:20;6.30;;;3.95;;
66487;SDS011;53304;54.550;18.526;2024-03-22T05:54:45;6.65;;;4.03;;
66487;SDS011;53304;54.550;18.526;2024-03-22T05:57:13;6.78;;;4.10;;
66487;SDS011;53304;54.550;18.526;2024-03-22T05:59:41;7.93;;;4.20;;
66487;SDS011;53304;54.550;18.526;2024-03-22T06:02:06;7.47;;;3.90;;
66487;SDS011;53304;54.550;18.526;2024-03-22T06:04:32;6.15;;;3.92;;
66487;SDS011;53304;54.550;18.526;2024-03-22T06:07:01;6.70;;;4.05;;
66487;SDS011;53304;54.550;18.526;2024-03-22T06:09:29;7.55;;;4.40;;
66487;SDS011;53304;54.550;18.526;2024-03-22T06:12:05;7.25;;;4.15;;
66487;SDS011;53304;54.550;18.526;2024-03-22T06:14:31;7.18;;;3.80;;
66487;SDS011;53304;54.550;18.526;2024-03-22T06:16:59;6.32;;;3.67;;
66487;SDS011;53304;54.550;18.526;2024-03-22T06:19:34;6.88;;;4.03;;
66487;SDS011;53304;54.550;18.526;2024-03-22T06:22:00;6.38;;;4.15;;
66487;SDS011;53304;54.550;18.526;2024-03-22T06:24:26;6.25;;;3.67;;
66487;SDS011;53304;54.550;18.526;2024-03-22T06:26:51;6.85;;;4.00;;
66487;SDS011;53304;54.550;18.526;2024-03-22T06:29:16;6.22;;;3.65;;
66487;SDS011;53304;54.550;18.526;2024-03-22T06:31:42;6.50;;;3.67;;
66487;SDS011;53304;54.550;18.526;2024-03-22T06:34:10;5.70;;;3.80;;
66487;SDS011;53304;54.550;18.526;2024-03-22T06:36:36;5.72;;;3.75;;
66487;SDS011;53304;54.550;18.526;2024-03-22T06:39:01;6.60;;;3.85;;
66487;SDS011;53304;54.550;18.526;2024-03-22T06:41:29;5.72;;;3.58;;
66487;SDS011;53304;54.550;18.526;2024-03-22T06:43:57;6.18;;;3.92;;
66487;SDS011;53304;54.550;18.526;2024-03-22T06:46:22;5.38;;;3.53;;
66487;SDS011;53304;54.550;18.526;2024-03-22T06:48:48;5.85;;;3.75;;
66487;SDS011;53304;54.550;18.526;2024-03-22T06:51:13;6.05;;;3.30;;
66487;SDS011;53304;54.550;18.526;2024-03-22T06:53:41;5.53;;;3.30;;
66487;SDS011;53304;54.550;18.526;2024-03-22T06:56:06;7.30;;;3.95;;
66487;SDS011;53304;54.550;18.526;2024-03-22T06:58:36;5.80;;;3.60;;
66487;SDS011;53304;54.550;18.526;2024-03-22T07:01:04;6.10;;;3.63;;
66487;SDS011;53304;54.550;18.526;2024-03-22T07:03:30;5.90;;;3.85;;
66487;SDS011;53304;54.550;18.526;2024-03-22T07:05:55;6.30;;;3.60;;
66487;SDS011;53304;54.550;18.526;2024-03-22T07:08:29;6.72;;;3.80;;
66487;SDS011;53304;54.550;18.526;2024-03-22T07:10:54;5.50;;;3.40;;
66487;SDS011;53304;54.550;18.526;2024-03-22T07:13:27;6.05;;;3.60;;
66487;SDS011;53304;54.550;18.526;2024-03-22T07:15:55;5.97;;;3.65;;
66487;SDS011;53304;54.550;18.526;2024-03-22T07:18:22;5.82;;;3.50;;
66487;SDS011;53304;54.550;18.526;2024-03-22T07:20:48;5.68;;;3.42;;
66487;SDS011;53304;54.550;18.526;2024-03-22T07:23:15;5.97;;;3.42;;
66487;SDS011;53304;54.550;18.526;2024-03-22T07:25:43;5.70;;;3.30;;
66487;SDS011;53304;54.550;18.526;2024-03-22T07:28:10;5.18;;;3.20;;
66487;SDS011;53304;54.550;18.526;2024-03-22T07:30:36;5.97;;;3.72;;
66487;SDS011;53304;54.550;18.526;2024-03-22T07:33:02;5.65;;;3.42;;
66487;SDS011;53304;54.550;18.526;2024-03-22T07:35:30;5.93;;;3.80;;
66487;SDS011;53304;54.550;18.526;2024-03-22T07:37:59;5.63;;;3.30;;
66487;SDS011;53304;54.550;18.526;2024-03-22T07:40:26;5.38;;;3.30;;
66487;SDS011;53304;54.550;18.526;2024-03-22T07:42:52;5.97;;;3.65;;
66487;SDS011;53304;54.550;18.526;2024-03-22T07:45:20;6.53;;;3.47;;
66487;SDS011;53304;54.550;18.526;2024-03-22T07:47:50;6.20;;;3.35;;
66487;SDS011;53304;54.550;18.526;2024-03-22T07:50:15;5.38;;;3.47;;
66487;SDS011;53304;54.550;18.526;2024-03-22T07:52:47;6.75;;;3.60;;
66487;SDS011;53304;54.550;18.526;2024-03-22T07:55:13;5.43;;;3.70;;
66487;SDS011;53304;54.550;18.526;2024-03-22T07:57:38;5.93;;;3.40;;
66487;SDS011;53304;54.550;18.526;2024-03-22T08:00:06;5.20;;;3.30;;
66487;SDS011;53304;54.550;18.526;2024-03-22T08:02:35;5.88;;;3.55;;
66487;SDS011;53304;54.550;18.526;2024-03-22T08:05:00;5.95;;;3.50;;
66487;SDS011;53304;54.550;18.526;2024-03-22T08:07:29;5.88;;;3.40;;
66487;SDS011;53304;54.550;18.526;2024-03-22T08:09:54;6.40;;;3.50;;
66487;SDS011;53304;54.550;18.526;2024-03-22T08:12:21;6.35;;;3.55;;
66487;SDS011;53304;54.550;18.526;2024-03-22T08:14:46;5.65;;;3.20;;
66487;SDS011;53304;54.550;18.526;2024-03-22T08:17:12;6.07;;;3.45;;
66487;SDS011;53304;54.550;18.526;2024-03-22T08:19:40;7.15;;;3.08;;
66487;SDS011;53304;54.550;18.526;2024-03-22T08:22:05;5.35;;;3.30;;
66487;SDS011;53304;54.550;18.526;2024-03-22T08:24:30;5.43;;;3.40;;
66487;SDS011;53304;54.550;18.526;2024-03-22T08:26:59;5.97;;;3.30;;
66487;SDS011;53304;54.550;18.526;2024-03-22T08:29:26;5.20;;;2.92;;
66487;SDS011;53304;54.550;18.526;2024-03-22T08:31:52;6.15;;;3.40;;
66487;SDS011;53304;54.550;18.526;2024-03-22T08:34:18;5.25;;;3.13;;
66487;SDS011;53304;54.550;18.526;2024-03-22T08:36:46;6.90;;;3.60;;
66487;SDS011;53304;54.550;18.526;2024-03-22T08:39:19;7.22;;;3.40;;
66487;SDS011;53304;54.550;18.526;2024-03-22T08:41:44;5.97;;;3.35;;
66487;SDS011;53304;54.550;18.526;2024-03-22T08:44:09;6.53;;;3.30;;
66487;SDS011;53304;54.550;18.526;2024-03-22T08:46:37;6.05;;;3.70;;
66487;SDS011;53304;54.550;18.526;2024-03-22T08:49:02;6.97;;;3.60;;
66487;SDS011;53304;54.550;18.526;2024-03-22T08:51:30;6.93;;;3.80;;
66487;SDS011;53304;54.550;18.526;2024-03-22T08:53:55;7.35;;;3.53;;
66487;SDS011;53304;54.550;18.526;2024-03-22T08:56:23;6.50;;;3.47;;
66487;SDS011;53304;54.550;18.526;2024-03-22T08:58:48;7.68;;;3.72;;
66487;SDS011;53304;54.550;18.526;2024-03-22T09:01:17;8.48;;;4.28;;
66487;SDS011;53304;54.550;18.526;2024-03-22T09:03:43;6.93;;;3.25;;
66487;SDS011;53304;54.550;18.526;2024-03-22T09:06:11;8.90;;;4.28;;
66487;SDS011;53304;54.550;18.526;2024-03-22T09:08:37;7.15;;;4.15;;
66487;SDS011;53304;54.550;18.526;2024-03-22T09:11:05;10.18;;;4.15;;
66487;SDS011;53304;54.550;18.526;2024-03-22T09:13:34;10.70;;;4.28;;
66487;SDS011;53304;54.550;18.526;2024-03-22T09:16:05;7.10;;;3.95;;
66487;SDS011;53304;54.550;18.526;2024-03-22T09:18:30;7.63;;;3.92;;
66487;SDS011;53304;54.550;18.526;2024-03-22T09:20:58;8.48;;;4.20;;
66487;SDS011;53304;54.550;18.526;2024-03-22T09:23:26;7.63;;;3.70;;
66487;SDS011;53304;54.550;18.526;2024-03-22T09:25:56;10.43;;;4.50;;
66487;SDS011;53304;54.550;18.526;2024-03-22T09:28:22;8.77;;;4.15;;
66487;SDS011;53304;54.550;18.526;2024-03-22T09:30:47;7.03;;;3.78;;
66487;SDS011;53304;54.550;18.526;2024-03-22T09:33:17;6.63;;;3.78;;
66487;SDS011;53304;54.550;18.526;2024-03-22T09:35:43;8.73;;;4.05;;
66487;SDS011;53304;54.550;18.526;2024-03-22T09:38:10;9.35;;;4.03;;
66487;SDS011;53304;54.550;18.526;2024-03-22T09:40:40;9.45;;;4.47;;
66487;SDS011;53304;54.550;18.526;2024-03-22T09:43:09;9.98;;;4.28;;
66487;SDS011;53304;54.550;18.526;2024-03-22T09:45:43;9.77;;;4.03;;
66487;SDS011;53304;54.550;18.526;2024-03-22T09:48:12;9.98;;;4.07;;
66487;SDS011;53304;54.550;18.526;2024-03-22T09:50:38;7.55;;;3.85;;
66487;SDS011;53304;54.550;18.526;2024-03-22T09:53:03;7.50;;;3.80;;
66487;SDS011;53304;54.550;18.526;2024-03-22T09:55:31;7.88;;;3.80;;
66487;SDS011;53304;54.550;18.526;2024-03-22T09:57:57;8.55;;;4.18;;
66487;SDS011;53304;54.550;18.526;2024-03-22T10:00:24;10.45;;;4.28;;
66487;SDS011;53304;54.550;18.526;2024-03-22T10:02:55;9.02;;;4.10;;
66487;SDS011;53304;54.550;18.526;2024-03-22T10:05:20;10.48;;;4.40;;
66487;SDS011;53304;54.550;18.526;2024-03-22T10:07:48;8.45;;;3.88;;
66487;SDS011;53304;54.550;18.526;2024-03-22T10:10:16;7.50;;;3.83;;
66487;SDS011;53304;54.550;18.526;2024-03-22T10:12:44;6.95;;;3.80;;
66487;SDS011;53304;54.550;18.526;2024-03-22T10:15:15;8.90;;;4.30;;
66487;SDS011;53304;54.550;18.526;2024-03-22T10:17:45;12.90;;;4.25;;
66487;SDS011;53304;54.550;18.526;2024-03-22T10:20:13;11.27;;;4.25;;
66487;SDS011;53304;54.550;18.526;2024-03-22T10:22:42;11.45;;;4.20;;
66487;SDS011;53304;54.550;18.526;2024-03-22T10:25:15;9.65;;;4.40;;
66487;SDS011;53304;54.550;18.526;2024-03-22T10:27:40;8.13;;;4.60;;
66487;SDS011;53304;54.550;18.526;2024-03-22T10:30:08;8.50;;;4.60;;
66487;SDS011;53304;54.550;18.526;2024-03-22T10:35:32;9.40;;;4.03;;
66487;SDS011;53304;54.550;18.526;2024-03-22T10:38:00;8.23;;;4.00;;
66487;SDS011;53304;54.550;18.526;2024-03-22T10:40:29;7.05;;;3.65;;
66487;SDS011;53304;54.550;18.526;2024-03-22T10:42:58;8.70;;;3.75;;
66487;SDS011;53304;54.550;18.526;2024-03-22T10:45:27;9.98;;;4.10;;
66487;SDS011;53304;54.550;18.526;2024-03-22T10:48:01;6.63;;;3.42;;
66487;SDS011;53304;54.550;18.526;2024-03-22T10:50:36;9.38;;;4.10;;
66487;SDS011;53304;54.550;18.526;2024-03-22T10:53:06;8.73;;;4.00;;
66487;SDS011;53304;54.550;18.526;2024-03-22T10:55:34;7.20;;;3.85;;
66487;SDS011;53304;54.550;18.526;2024-03-22T10:58:03;7.05;;;3.90;;
66487;SDS011;53304;54.550;18.526;2024-03-22T11:00:33;8.63;;;3.85;;
66487;SDS011;53304;54.550;18.526;2024-03-22T11:03:03;7.32;;;3.92;;
66487;SDS011;53304;54.550;18.526;2024-03-22T11:05:29;7.65;;;3.83;;
66487;SDS011;53304;54.550;18.526;2024-03-22T11:08:00;7.28;;;4.05;;
66487;SDS011;53304;54.550;18.526;2024-03-22T11:10:29;10.25;;;4.13;;
66487;SDS011;53304;54.550;18.526;2024-03-22T11:13:01;9.93;;;3.95;;
66487;SDS011;53304;54.550;18.526;2024-03-22T11:15:32;7.05;;;3.95;;
66487;SDS011;53304;54.550;18.526;2024-03-22T11:17:58;9.57;;;4.07;;
66487;SDS011;53304;54.550;18.526;2024-03-22T11:20:24;7.75;;;4.03;;
66487;SDS011;53304;54.550;18.526;2024-03-22T11:22:56;6.97;;;4.00;;
66487;SDS011;53304;54.550;18.526;2024-03-22T11:25:21;9.88;;;4.13;;
66487;SDS011;53304;54.550;18.526;2024-03-22T11:27:49;11.57;;;3.95;;
66487;SDS011;53304;54.550;18.526;2024-03-22T11:30:17;15.68;;;4.85;;
66487;SDS011;53304;54.550;18.526;2024-03-22T11:32:43;16.02;;;4.93;;
66487;SDS011;53304;54.550;18.526;2024-03-22T11:35:14;11.43;;;4.28;;
66487;SDS011;53304;54.550;18.526;2024-03-22T11:37:40;11.52;;;4.68;;
66487;SDS011;53304;54.550;18.526;2024-03-22T11:40:06;12.13;;;4.78;;
66487;SDS011;53304;54.550;18.526;2024-03-22T11:42:37;10.82;;;4.60;;
66487;SDS011;53304;54.550;18.526;2024-03-22T11:45:03;10.35;;;4.53;;
66487;SDS011;53304;54.550;18.526;2024-03-22T11:47:30;9.65;;;3.88;;
66487;SDS011;53304;54.550;18.526;2024-03-22T11:49:58;17.58;;;4.60;;
66487;SDS011;53304;54.550;18.526;2024-03-22T11:52:26;7.25;;;3.95;;
66487;SDS011;53304;54.550;18.526;2024-03-22T11:54:54;10.68;;;4.32;;
66487;SDS011;53304;54.550;18.526;2024-03-22T11:57:24;8.75;;;4.18;;
66487;SDS011;53304;54.550;18.526;2024-03-22T11:59:50;16.15;;;4.63;;
66487;SDS011;53304;54.550;18.526;2024-03-22T12:02:16;9.55;;;3.90;;
66487;SDS011;53304;54.550;18.526;2024-03-22T12:04:42;11.80;;;4.18;;
66487;SDS011;53304;54.550;18.526;2024-03-22T12:07:10;12.35;;;4.70;;
66487;SDS011;53304;54.550;18.526;2024-03-22T12:09:36;8.30;;;3.95;;
66487;SDS011;53304;54.550;18.526;2024-03-22T12:12:01;7.22;;;4.00;;
66487;SDS011;53304;54.550;18.526;2024-03-22T12:14:29;9.68;;;3.92;;
66487;SDS011;53304;54.550;18.526;2024-03-22T12:16:54;7.47;;;3.90;;
66487;SDS011;53304;54.550;18.526;2024-03-22T12:19:19;8.77;;;3.70;;
66487;SDS011;53304;54.550;18.526;2024-03-22T12:21:48;8.90;;;4.03;;
66487;SDS011;53304;54.550;18.526;2024-03-22T12:24:13;8.32;;;3.80;;
66487;SDS011;53304;54.550;18.526;2024-03-22T12:26:38;7.90;;;3.75;;
66487;SDS011;53304;54.550;18.526;2024-03-22T12:29:08;6.53;;;3.72;;
66487;SDS011;53304;54.550;18.526;2024-03-22T12:31:37;7.05;;;3.22;;
66487;SDS011;53304;54.550;18.526;2024-03-22T12:34:02;7.30;;;3.42;;
66487;SDS011;53304;54.550;18.526;2024-03-22T12:36:28;7.75;;;3.58;;
66487;SDS011;53304;54.550;18.526;2024-03-22T12:38:53;7.03;;;3.30;;
66487;SDS011;53304;54.550;18.526;2024-03-22T12:41:23;7.05;;;3.63;;
66487;SDS011;53304;54.550;18.526;2024-03-22T12:43:51;7.63;;;3.58;;
66487;SDS011;53304;54.550;18.526;2024-03-22T12:46:19;6.85;;;3.58;;
66487;SDS011;53304;54.550;18.526;2024-03-22T12:48:47;8.25;;;3.47;;
66487;SDS011;53304;54.550;18.526;2024-03-22T12:51:12;5.88;;;3.30;;
66487;SDS011;53304;54.550;18.526;2024-03-22T12:53:40;6.85;;;3.42;;
66487;SDS011;53304;54.550;18.526;2024-03-22T12:56:06;8.25;;;3.75;;
66487;SDS011;53304;54.550;18.526;2024-03-22T12:58:31;7.05;;;3.33;;
66487;SDS011;53304;54.550;18.526;2024-03-22T13:00:59;7.25;;;3.58;;
66487;SDS011;53304;54.550;18.526;2024-03-22T13:03:26;5.70;;;3.30;;
66487;SDS011;53304;54.550;18.526;2024-03-22T13:05:52;7.93;;;4.05;;
66487;SDS011;53304;54.550;18.526;2024-03-22T13:08:19;7.50;;;3.22;;
66487;SDS011;53304;54.550;18.526;2024-03-22T13:10:47;5.65;;;3.28;;
66487;SDS011;53304;54.550;18.526;2024-03-22T13:13:15;7.03;;;3.63;;
66487;SDS011;53304;54.550;18.526;2024-03-22T13:15:46;8.02;;;3.03;;
66487;SDS011;53304;54.550;18.526;2024-03-22T13:18:16;6.13;;;3.22;;
66487;SDS011;53304;54.550;18.526;2024-03-22T13:20:46;6.40;;;3.40;;
66487;SDS011;53304;54.550;18.526;2024-03-22T13:23:12;6.00;;;3.22;;
66487;SDS011;53304;54.550;18.526;2024-03-22T13:25:39;5.07;;;3.15;;
66487;SDS011;53304;54.550;18.526;2024-03-22T13:28:05;5.88;;;3.22;;
66487;SDS011;53304;54.550;18.526;2024-03-22T13:30:31;5.35;;;3.22;;
66487;SDS011;53304;54.550;18.526;2024-03-22T13:32:56;6.05;;;3.15;;
66487;SDS011;53304;54.550;18.526;2024-03-22T13:35:22;7.78;;;3.38;;
66487;SDS011;53304;54.550;18.526;2024-03-22T13:37:50;6.18;;;3.03;;
66487;SDS011;53304;54.550;18.526;2024-03-22T13:40:15;5.93;;;3.03;;
66487;SDS011;53304;54.550;18.526;2024-03-22T13:42:41;6.80;;;3.25;;
66487;SDS011;53304;54.550;18.526;2024-03-22T13:45:06;6.00;;;3.63;;
66487;SDS011;53304;54.550;18.526;2024-03-22T13:47:34;6.45;;;3.40;;
66487;SDS011;53304;54.550;18.526;2024-03-22T13:50:04;5.95;;;3.10;;
66487;SDS011;53304;54.550;18.526;2024-03-22T13:52:31;6.18;;;3.17;;
66487;SDS011;53304;54.550;18.526;2024-03-22T13:54:56;5.90;;;3.20;;
66487;SDS011;53304;54.550;18.526;2024-03-22T13:57:22;5.95;;;3.20;;
66487;SDS011;53304;54.550;18.526;2024-03-22T13:59:49;4.78;;;2.63;;
66487;SDS011;53304;54.550;18.526;2024-03-22T14:02:18;6.78;;;3.20;;
66487;SDS011;53304;54.550;18.526;2024-03-22T14:04:44;6.68;;;3.00;;
66487;SDS011;53304;54.550;18.526;2024-03-22T14:07:14;5.18;;;2.85;;
66487;SDS011;53304;54.550;18.526;2024-03-22T14:09:40;5.10;;;2.80;;
66487;SDS011;53304;54.550;18.526;2024-03-22T14:12:06;5.43;;;2.95;;
66487;SDS011;53304;54.550;18.526;2024-03-22T14:14:34;7.68;;;3.13;;
66487;SDS011;53304;54.550;18.526;2024-03-22T14:16:59;5.95;;;3.10;;
66487;SDS011;53304;54.550;18.526;2024-03-22T14:19:24;6.38;;;3.17;;
66487;SDS011;53304;54.550;18.526;2024-03-22T14:21:50;5.85;;;3.20;;
66487;SDS011;53304;54.550;18.526;2024-03-22T14:24:15;5.53;;;2.92;;
66487;SDS011;53304;54.550;18.526;2024-03-22T14:26:43;5.15;;;2.90;;
66487;SDS011;53304;54.550;18.526;2024-03-22T14:29:09;5.38;;;2.88;;
66487;SDS011;53304;54.550;18.526;2024-03-22T14:31:35;4.85;;;2.70;;
66487;SDS011;53304;54.550;18.526;2024-03-22T14:34:05;6.18;;;2.72;;
66487;SDS011;53304;54.550;18.526;2024-03-22T14:36:31;4.80;;;2.65;;